Time;durP1;ratioP1;P1;durP2;ratioP2;P2;SDS_P1;SDS_P2;PMS_P1;PMS_P2;Temp;Humidity;BMP_temperature;BMP_pressure;BME280_temperature;BME280_humidity;BME280_pressure;Samples;Min_cycle;Max_cycle;Signal;HPM_P1;HPM_P2
2021/06/29 00:00:41;;;;;;;7.65;6.28;;;;;;;18.61;87.22;95240.03;5104088;28;20039;-68
2021/06/29 00:03:08;;;;;;;7.78;5.95;;;;;;;18.60;87.65;95233.19;5102728;28;20100;-67
2021/06/29 00:05:37;;;;;;;7.25;6.55;;;;;;;18.67;87.94;95238.94;5104170;28;20050;-67
2021/06/29 00:08:07;;;;;;;11.23;5.93;;;;;;;18.66;87.97;95234.75;5104611;28;20027;-67
2021/06/29 00:10:36;;;;;;;12.32;5.93;;;;;;;18.72;88.13;95238.94;5105115;28;20054;-68
2021/06/29 00:13:05;;;;;;;8.45;6.88;;;;;;;18.66;88.08;95229.47;5102406;28;20071;-68
2021/06/29 00:15:32;;;;;;;8.02;6.78;;;;;;;18.60;87.82;95233.19;5087132;28;20537;-68
2021/06/29 00:18:00;;;;;;;28.63;8.40;;;;;;;18.38;90.32;95233.56;5106624;27;20040;-67
2021/06/29 00:20:27;;;;;;;10.15;6.30;;;;;;;18.32;91.02;95240.69;5104894;28;20493;-67
2021/06/29 00:22:54;;;;;;;8.32;6.35;;;;;;;18.37;90.53;95240.69;5105178;28;20050;-67
2021/06/29 00:25:22;;;;;;;10.57;7.10;;;;;;;18.39;90.25;95232.50;5102457;27;20046;-67
2021/06/29 00:27:49;;;;;;;8.82;6.38;;;;;;;18.46;89.72;95233.78;5101384;28;20489;-67
2021/06/29 00:30:16;;;;;;;9.40;6.65;;;;;;;18.25;91.37;95232.28;5103177;28;20055;-68
2021/06/29 00:32:43;;;;;;;8.40;7.50;;;;;;;18.28;91.73;95231.75;5102855;28;20043;-67
2021/06/29 00:35:11;;;;;;;15.00;6.47;;;;;;;18.41;90.93;95228.53;5103302;28;20050;-68
2021/06/29 00:37:38;;;;;;;8.68;7.07;;;;;;;18.39;91.25;95230.66;5103078;28;20042;-67
2021/06/29 00:40:07;;;;;;;13.75;7.07;;;;;;;18.30;91.89;95237.53;5102574;28;20477;-67
2021/06/29 00:42:35;;;;;;;11.13;8.13;;;;;;;18.24;93.01;95230.69;5103773;28;20036;-67
2021/06/29 00:45:03;;;;;;;12.65;8.40;;;;;;;18.15;93.50;95223.34;5104998;28;20515;-67
2021/06/29 00:47:29;;;;;;;10.90;8.68;;;;;;;18.12;93.99;95229.16;5104598;28;20038;-68
2021/06/29 00:49:56;;;;;;;14.52;9.25;;;;;;;18.14;94.34;95227.03;5105182;28;20055;-67
2021/06/29 00:52:23;;;;;;;16.15;8.80;;;;;;;18.17;93.89;95220.47;5104674;28;20131;-67
2021/06/29 00:54:50;;;;;;;14.40;9.57;;;;;;;18.15;94.17;95225.22;5103713;28;21137;-67
2021/06/29 00:57:17;;;;;;;16.83;9.27;;;;;;;18.10;95.19;95223.38;5103144;28;20043;-67
2021/06/29 00:59:44;;;;;;;13.98;8.70;;;;;;;18.06;95.54;95219.69;5104745;28;20043;-67
2021/06/29 01:02:12;;;;;;;16.52;9.07;;;;;;;18.03;96.11;95225.50;5104711;28;20044;-68
2021/06/29 01:04:41;;;;;;;23.25;10.13;;;;;;;18.02;96.99;95234.44;5104641;28;20089;-68
2021/06/29 01:07:14;;;;;;;12.10;8.90;;;;;;;17.99;97.39;95228.91;5104498;28;20051;-68
2021/06/29 01:09:41;;;;;;;20.42;9.88;;;;;;;18.03;97.14;95224.72;5104172;28;20039;-67
2021/06/29 01:12:08;;;;;;;14.25;9.65;;;;;;;18.02;97.74;95223.91;5104683;28;20110;-68
2021/06/29 01:14:36;;;;;;;17.73;10.15;;;;;;;18.03;97.41;95222.88;5104519;28;20042;-68
2021/06/29 01:17:05;;;;;;;13.32;9.63;;;;;;;18.00;98.11;95226.03;5104295;28;20055;-67
2021/06/29 01:19:49;;;;;;;14.63;9.48;;;;;;;18.02;98.30;95223.91;5103162;28;20043;-67
2021/06/29 01:22:16;;;;;;;;;;;;;;;17.95;98.56;95221.56;5104672;28;20047;-68
2021/06/29 01:24:48;;;;;;;18.40;10.88;;;;;;;17.98;98.37;95228.16;5104745;28;20392;-68
2021/06/29 01:27:31;;;;;;;19.92;10.60;;;;;;;18.06;97.97;95224.97;5102771;28;20043;-67
2021/06/29 01:32:27;;;;;;;29.52;10.90;;;;;;;18.07;98.18;95223.91;5104180;28;20044;-67
2021/06/29 01:34:54;;;;;;;15.20;10.88;;;;;;;18.08;98.27;95222.84;5104628;28;20046;-67
2021/06/29 01:37:22;;;;;;;16.80;10.00;;;;;;;18.05;97.85;95218.09;5105153;28;20051;-67
2021/06/29 01:39:56;;;;;;;13.48;10.23;;;;;;;18.08;97.86;95222.84;5107030;27;20039;-67
2021/06/29 01:42:23;;;;;;;14.55;10.15;;;;;;;18.06;97.95;95214.44;5089757;28;20181;-67
2021/06/29 01:44:50;;;;;;;16.33;10.80;;;;;;;18.15;97.49;95223.34;5108188;28;21466;-67
2021/06/29 01:47:25;;;;;;;12.65;10.40;;;;;;;18.22;97.08;95217.00;5107298;28;20039;-67
2021/06/29 01:49:52;;;;;;;15.57;10.73;;;;;;;18.31;96.27;95218.00;5106886;28;20535;-68
2021/06/29 01:52:19;;;;;;;14.88;10.98;;;;;;;18.32;95.46;95211.69;5106528;27;20039;-67
2021/06/29 01:54:46;;;;;;;13.93;9.68;;;;;;;18.42;94.69;95221.41;5107703;28;20159;-67
2021/06/29 01:57:17;;;;;;;21.83;10.93;;;;;;;18.27;96.77;95227.53;5107882;28;20120;-67
2021/06/29 01:59:47;;;;;;;17.15;11.23;;;;;;;18.26;97.28;95229.38;5107677;28;20039;-67
2021/06/29 02:02:15;;;;;;;25.50;10.70;;;;;;;18.31;96.30;95215.38;5106839;28;20051;-67
2021/06/29 02:04:42;;;;;;;14.40;11.32;;;;;;;18.33;95.97;95213.28;5107664;28;20047;-67
2021/06/29 02:07:09;;;;;;;17.17;11.48;;;;;;;18.26;95.87;95197.75;5107987;28;20112;-67
2021/06/29 02:09:36;;;;;;;19.60;13.15;;;;;;;18.21;96.92;95207.53;5107332;27;20043;-67
2021/06/29 02:12:04;;;;;;;17.75;11.77;;;;;;;18.29;96.92;95206.94;5107424;28;20047;-67
2021/06/29 02:14:31;;;;;;;14.63;11.82;;;;;;;18.32;96.32;95209.06;5108980;27;20044;-67
2021/06/29 02:16:58;;;;;;;14.90;11.77;;;;;;;18.31;96.21;95205.63;5107180;27;20047;-67
2021/06/29 02:19:25;;;;;;;14.52;11.23;;;;;;;18.29;96.79;95204.31;5107195;28;20485;-67
2021/06/29 02:21:51;;;;;;;19.67;12.57;;;;;;;18.19;96.76;95199.88;5107207;28;20055;-67
2021/06/29 02:24:18;;;;;;;22.13;13.65;;;;;;;18.19;97.74;95220.19;5106993;28;20078;-68
2021/06/29 02:26:45;;;;;;;17.73;12.25;;;;;;;17.96;98.14;95193.38;5105680;28;20063;-68
2021/06/29 02:29:12;;;;;;;18.77;13.15;;;;;;;18.12;98.60;95213.34;5106894;27;20382;-68
2021/06/29 02:31:38;;;;;;;18.73;12.02;;;;;;;18.05;99.19;95215.47;5107259;28;20046;-67
2021/06/29 02:34:05;;;;;;;22.98;12.57;;;;;;;17.97;99.31;95221.31;5106941;28;20040;-67
2021/06/29 02:36:32;;;;;;;14.98;11.32;;;;;;;17.95;98.90;95218.13;5088508;27;20047;-67
2021/06/29 02:38:59;;;;;;;19.42;12.30;;;;;;;17.91;99.17;95211.81;5107092;28;20453;-67
2021/06/29 02:41:26;;;;;;;18.05;11.90;;;;;;;17.95;99.50;95220.75;5105865;28;20044;-67
2021/06/29 02:43:54;;;;;;;18.60;11.80;;;;;;;18.00;99.29;95225.25;5106742;28;20062;-68
2021/06/29 02:46:20;;;;;;;15.05;11.73;;;;;;;18.02;98.71;95216.00;5107030;27;20039;-67
2021/06/29 02:48:47;;;;;;;15.73;11.40;;;;;;;18.06;98.36;95224.97;5106249;27;20040;-68
2021/06/29 02:51:15;;;;;;;15.48;11.98;;;;;;;18.11;97.96;95222.31;5106700;28;20536;-67
2021/06/29 02:53:41;;;;;;;18.60;13.48;;;;;;;18.13;97.67;95219.41;5089722;28;20043;-68
2021/06/29 02:56:37;;;;;;;22.00;14.25;;;;;;;18.15;98.01;95228.63;5106626;28;20050;-67
2021/06/29 02:58:55;;;;;;;25.30;13.25;;;;;;;18.18;98.43;95226.50;5105058;28;20027;-68
2021/06/29 03:01:22;;;;;;;21.38;13.52;;;;;;;18.25;97.40;95224.38;5106954;28;20550;-67
2021/06/29 03:03:49;;;;;;;28.55;15.00;;;;;;;18.27;97.18;95230.94;5105442;27;20043;-67
2021/06/29 03:06:16;;;;;;;23.52;15.57;;;;;;;18.25;96.95;95229.66;5107471;27;20051;-68
2021/06/29 03:08:43;;;;;;;24.75;15.70;;;;;;;18.24;97.37;95231.50;5106172;27;20478;-68
2021/06/29 03:11:10;;;;;;;28.30;16.95;;;;;;;18.27;97.32;95230.16;5108046;27;20044;-67
2021/06/29 03:13:36;;;;;;;33.60;17.52;;;;;;;18.24;98.71;95233.34;5106571;28;20043;-68
2021/06/29 03:16:05;;;;;;;28.10;16.92;;;;;;;18.26;98.82;95239.16;5106022;28;20055;-68
2021/06/29 03:18:33;;;;;;;23.67;16.10;;;;;;;18.33;97.83;95234.38;5106009;27;20086;-67
2021/06/29 03:21:00;;;;;;;27.13;15.13;;;;;;;18.38;97.10;95231.69;5106171;28;20478;-67
2021/06/29 03:23:27;;;;;;;17.85;13.20;;;;;;;18.33;97.28;95229.09;5106068;28;20032;-67
2021/06/29 03:25:54;;;;;;;36.42;14.43;;;;;;;18.24;97.65;95230.69;5105841;28;20093;-67
2021/06/29 03:28:20;;;;;;;17.92;13.85;;;;;;;18.13;98.55;95236.03;5104066;28;20501;-67
2021/06/29 03:30:47;;;;;;;18.40;13.32;;;;;;;18.20;98.14;95229.66;5105754;27;20050;-67
2021/06/29 03:33:14;;;;;;;16.23;13.90;;;;;;;18.21;98.53;95220.72;5106154;28;20043;-67
2021/06/29 03:35:41;;;;;;;16.00;13.93;;;;;;;18.28;98.88;95231.75;5087888;28;20045;-68
2021/06/29 03:38:08;;;;;;;18.33;13.27;;;;;;;18.17;99.03;95214.38;5106311;27;20040;-67
2021/06/29 03:40:35;;;;;;;22.85;14.27;;;;;;;18.27;99.65;95230.16;5104439;28;21116;-68
2021/06/29 03:43:02;;;;;;;19.98;13.70;;;;;;;18.22;100.00;95232.81;5104698;28;20048;-67
2021/06/29 03:45:29;;;;;;;27.02;15.20;;;;;;;18.18;100.00;95218.59;5105676;27;20105;-67
2021/06/29 03:47:55;;;;;;;25.75;15.20;;;;;;;18.27;100.00;95235.44;5087127;28;20059;-67
2021/06/29 03:50:24;;;;;;;18.67;14.50;;;;;;;18.31;100.00;95237.28;5105539;28;20497;-67
2021/06/29 03:52:52;;;;;;;23.70;14.85;;;;;;;18.30;100.00;95234.91;5105707;28;20047;-68
2021/06/29 03:55:20;;;;;;;20.15;14.05;;;;;;;18.29;100.00;95231.50;5105256;28;20456;-67
2021/06/29 03:57:46;;;;;;;21.27;13.98;;;;;;;18.40;100.00;95245.44;5106020;27;20701;-67
2021/06/29 04:00:14;;;;;;;19.60;14.65;;;;;;;18.49;100.00;95240.34;5107692;27;20043;-67
2021/06/29 04:02:41;;;;;;;23.45;15.35;;;;;;;18.58;100.00;95235.31;5104469;28;20424;-67
2021/06/29 04:05:09;;;;;;;25.75;16.88;;;;;;;18.61;100.00;95235.56;5105080;28;20035;-68
2021/06/29 04:07:36;;;;;;;22.85;16.63;;;;;;;18.69;100.00;95242.09;5105468;28;20432;-67
2021/06/29 04:10:06;;;;;;;25.13;18.35;;;;;;;18.73;100.00;95237.88;5104603;28;20039;-68
2021/06/29 04:12:32;;;;;;;33.15;19.17;;;;;;;18.81;100.00;95237.31;5104147;28;20040;-68
2021/06/29 04:14:59;;;;;;;38.40;22.17;;;;;;;18.91;100.00;95237.28;5103559;27;20066;-67
2021/06/29 04:17:26;;;;;;;35.60;22.95;;;;;;;19.02;100.00;95235.34;5104639;28;20048;-68
2021/06/29 04:20:12;;;;;;;34.70;21.67;;;;;;;19.04;100.00;95227.16;5104078;27;20063;-68
2021/06/29 04:22:40;;;;;;;37.05;21.17;;;;;;;19.08;100.00;95228.97;5085100;28;20043;-68
2021/06/29 04:25:08;;;;;;;31.63;21.65;;;;;;;19.17;100.00;95237.09;5104052;28;20050;-68
2021/06/29 04:27:35;;;;;;;26.23;18.00;;;;;;;19.17;100.00;95242.38;5102996;28;20062;-68
2021/06/29 04:30:04;;;;;;;30.65;18.77;;;;;;;19.26;100.00;95245.22;5104433;28;20043;-68
2021/06/29 04:32:31;;;;;;;27.70;17.25;;;;;;;19.38;100.00;95243.03;5105938;28;20039;-68
2021/06/29 04:34:58;;;;;;;31.05;19.77;;;;;;;19.54;100.00;95235.75;5104391;28;20428;-67
2021/06/29 04:37:25;;;;;;;34.17;20.20;;;;;;;19.57;100.00;95235.22;5104299;28;20401;-66
2021/06/29 04:39:51;;;;;;;34.40;20.27;;;;;;;19.71;98.68;95232.69;5101768;28;20421;-66
2021/06/29 04:42:18;;;;;;;35.95;22.45;;;;;;;19.86;98.77;95242.34;5102360;28;20093;-66
2021/06/29 04:44:45;;;;;;;40.50;21.55;;;;;;;19.86;99.51;95247.66;5102537;28;20035;-67
2021/06/29 04:47:12;;;;;;;24.33;16.23;;;;;;;19.90;95.51;95243.41;5102800;28;20050;-67
2021/06/29 04:49:38;;;;;;;29.88;15.27;;;;;;;19.88;94.58;95250.81;5105343;28;20535;-67
2021/06/29 04:52:05;;;;;;;31.88;16.65;;;;;;;19.87;94.59;95238.66;5106255;28;20459;-67
2021/06/29 04:54:32;;;;;;;25.77;15.38;;;;;;;19.95;95.04;95235.41;5104856;28;21116;-67
2021/06/29 04:56:59;;;;;;;32.92;18.25;;;;;;;19.89;95.31;95230.47;5103248;28;20044;-67
2021/06/29 04:59:26;;;;;;;27.25;16.27;;;;;;;20.05;95.20;95230.00;5104877;28;20824;-67
2021/06/29 05:01:53;;;;;;;26.00;15.88;;;;;;;20.16;94.63;95241.25;5106472;28;20516;-67
2021/06/29 05:04:20;;;;;;;32.20;20.30;;;;;;;20.19;97.37;95234.63;5104563;28;20050;-67
2021/06/29 05:06:47;;;;;;;33.13;20.48;;;;;;;20.22;98.82;95234.88;5105447;28;20047;-66
2021/06/29 05:09:14;;;;;;;33.03;22.20;;;;;;;20.31;99.39;95237.69;5104668;28;20036;-68
2021/06/29 05:11:41;;;;;;;32.95;22.30;;;;;;;20.38;99.37;95232.84;5107913;27;20110;-67
2021/06/29 05:21:33;;;;;;;36.70;22.52;;;;;;;20.43;98.95;95224.81;5126703;27;20247;-68
2021/06/29 05:24:02;;;;;;;40.60;22.20;;;;;;;20.59;99.79;95243.16;5118770;28;20047;-68
2021/06/29 05:26:29;;;;;;;39.72;24.48;;;;;;;20.73;99.25;95236.13;5120499;28;20531;-68
2021/06/29 05:28:56;;;;;;;48.10;25.05;;;;;;;20.85;99.80;95234.91;5118387;28;20043;-68
2021/06/29 05:31:23;;;;;;;49.58;26.15;;;;;;;20.99;98.34;95238.41;5119812;28;20051;-68
2021/06/29 05:33:50;;;;;;;41.47;23.40;;;;;;;21.05;97.72;95239.94;5119216;28;20128;-69
2021/06/29 05:36:16;;;;;;;43.83;25.48;;;;;;;21.14;96.90;95240.84;5118017;28;20055;-68
2021/06/29 05:38:43;;;;;;;44.47;24.92;;;;;;;21.16;97.29;95235.28;5120622;28;20039;-68
2021/06/29 05:41:10;;;;;;;42.17;25.23;;;;;;;21.11;96.71;95222.88;5121202;27;20070;-68
2021/06/29 05:43:37;;;;;;;52.20;27.23;;;;;;;21.31;96.58;95239.53;5120476;28;20077;-68
2021/06/29 05:46:04;;;;;;;52.53;29.13;;;;;;;21.53;96.80;95238.94;5120813;28;20053;-68
2021/06/29 05:48:33;;;;;;;53.58;29.02;;;;;;;21.67;95.92;95237.13;5120678;28;20520;-68
2021/06/29 05:51:01;;;;;;;44.63;25.27;;;;;;;21.82;92.91;95240.59;5119027;28;20059;-68
2021/06/29 05:53:29;;;;;;;45.40;25.88;;;;;;;21.93;93.11;95242.78;5120722;28;20050;-68
2021/06/29 05:55:58;;;;;;;47.03;24.90;;;;;;;21.99;92.73;95240.81;5102445;28;20052;-68
2021/06/29 05:58:25;;;;;;;42.88;23.23;;;;;;;22.00;91.54;95241.59;5120779;28;20035;-68
2021/06/29 06:00:52;;;;;;;42.03;24.80;;;;;;;22.11;91.27;95246.44;5120527;28;20057;-68
2021/06/29 06:03:20;;;;;;;39.97;24.10;;;;;;;22.14;89.49;95237.09;5119413;28;20073;-68
2021/06/29 06:05:47;;;;;;;37.90;23.08;;;;;;;22.26;89.23;95242.72;5118968;28;20051;-68
2021/06/29 06:08:14;;;;;;;35.30;21.73;;;;;;;22.32;87.90;95249.50;5101894;28;20043;-68
2021/06/29 06:10:41;;;;;;;39.15;23.33;;;;;;;22.39;87.48;95243.03;5120114;28;20448;-68
2021/06/29 06:13:08;;;;;;;38.28;21.00;;;;;;;22.49;87.04;95248.13;5120855;28;20048;-68
2021/06/29 06:15:35;;;;;;;33.35;20.77;;;;;;;22.66;88.45;95247.53;5101173;28;20463;-68
2021/06/29 06:18:05;;;;;;;31.42;17.90;;;;;;;22.66;84.51;95240.34;5118414;28;20049;-68
2021/06/29 06:20:36;;;;;;;33.17;19.80;;;;;;;22.79;86.21;95236.09;5114768;28;20062;-68
2021/06/29 06:23:03;;;;;;;35.25;19.25;;;;;;;22.81;85.93;95238.44;5120426;28;20050;-68
2021/06/29 06:25:31;;;;;;;32.10;19.17;;;;;;;22.82;83.67;95240.03;5119808;28;20447;-68
2021/06/29 06:27:58;;;;;;;34.90;18.10;;;;;;;22.83;84.30;95230.97;5120756;28;20495;-68
2021/06/29 06:30:25;;;;;;;30.13;17.05;;;;;;;22.97;83.50;95231.72;5119418;28;20058;-68
2021/06/29 06:32:52;;;;;;;28.42;16.00;;;;;;;23.01;82.15;95227.38;5106174;28;20044;-69
2021/06/29 06:35:19;;;;;;;29.55;16.42;;;;;;;23.17;83.49;95235.81;5104702;28;20070;-68
2021/06/29 06:37:46;;;;;;;24.27;15.18;;;;;;;23.31;84.12;95227.78;5106016;28;20039;-68
2021/06/29 06:40:13;;;;;;;25.23;15.15;;;;;;;23.42;80.45;95229.09;5106650;28;20551;-69
2021/06/29 06:42:41;;;;;;;26.48;15.73;;;;;;;23.52;80.88;95235.28;5106209;28;20041;-68
2021/06/29 06:45:09;;;;;;;29.30;16.48;;;;;;;23.63;82.55;95225.97;5106240;28;20043;-68
2021/06/29 06:47:36;;;;;;;21.55;14.70;;;;;;;23.69;78.97;95224.75;5106240;27;20520;-69
2021/06/29 06:50:06;;;;;;;34.88;16.77;;;;;;;23.90;79.47;95226.94;5106271;28;20038;-69
2021/06/29 06:52:37;;;;;;;20.00;14.13;;;;;;;24.00;79.36;95230.09;5102158;28;20056;-68
2021/06/29 06:55:05;;;;;;;25.02;13.93;;;;;;;24.13;78.19;95223.09;5108019;28;20106;-68
2021/06/29 06:57:32;;;;;;;25.73;14.05;;;;;;;24.31;79.51;95228.47;5107400;28;21222;-68
2021/06/29 06:59:59;;;;;;;24.88;15.10;;;;;;;24.36;77.89;95209.69;5107441;28;20048;-69
2021/06/29 07:02:26;;;;;;;19.33;13.80;;;;;;;24.58;76.08;95232.81;5107609;28;20127;-66
2021/06/29 07:04:53;;;;;;;25.63;14.93;;;;;;;24.70;76.25;95226.88;5107450;28;20119;-66
2021/06/29 07:07:19;;;;;;;23.08;14.35;;;;;;;24.69;75.58;95225.31;5107421;28;20048;-66
2021/06/29 07:09:46;;;;;;;22.48;14.30;;;;;;;24.82;75.17;95232.38;5107192;28;20043;-66
2021/06/29 07:12:13;;;;;;;21.05;14.25;;;;;;;24.95;76.42;95236.78;5107331;28;20067;-66
2021/06/29 07:14:40;;;;;;;23.55;14.88;;;;;;;24.98;74.31;95214.84;5107227;28;20040;-66
2021/06/29 07:17:07;;;;;;;24.83;13.70;;;;;;;25.02;73.89;95208.91;5106111;28;20048;-66
2021/06/29 07:19:34;;;;;;;20.60;12.07;;;;;;;25.17;75.65;95213.72;5106901;28;20517;-66
2021/06/29 07:22:00;;;;;;;19.80;13.13;;;;;;;25.35;75.69;95220.66;5105602;28;20044;-66
2021/06/29 07:24:27;;;;;;;26.73;14.80;;;;;;;25.41;74.59;95223.16;5107310;28;20523;-66
2021/06/29 07:26:54;;;;;;;20.05;13.10;;;;;;;25.55;74.12;95215.75;5107341;28;20047;-66
2021/06/29 07:29:21;;;;;;;20.20;11.63;;;;;;;25.70;73.41;95220.59;5107208;28;20031;-66
2021/06/29 07:31:48;;;;;;;24.08;11.32;;;;;;;25.98;73.28;95217.53;5106432;28;20059;-66
2021/06/29 07:34:15;;;;;;;16.95;11.43;;;;;;;25.96;69.95;95209.09;5106485;28;20039;-66
2021/06/29 07:36:42;;;;;;;18.00;11.02;;;;;;;26.11;71.96;95221.13;5107281;28;20046;-66
2021/06/29 07:39:09;;;;;;;14.15;11.13;;;;;;;26.15;69.76;95215.94;5107560;28;20059;-66
2021/06/29 07:41:36;;;;;;;16.80;12.38;;;;;;;26.28;73.52;95204.25;5106996;28;20036;-66
2021/06/29 07:44:03;;;;;;;17.23;11.43;;;;;;;26.47;70.32;95220.63;5106216;28;20051;-66
2021/06/29 07:46:30;;;;;;;26.40;11.90;;;;;;;26.67;70.27;95215.69;5106736;28;20050;-66
2021/06/29 07:48:57;;;;;;;18.02;11.00;;;;;;;26.76;68.53;95219.09;5107368;28;20039;-66
2021/06/29 07:51:24;;;;;;;21.00;11.40;;;;;;;26.78;68.78;95222.22;5107024;28;20035;-67
2021/06/29 07:53:51;;;;;;;16.48;11.55;;;;;;;26.80;65.17;95222.66;5087751;28;20044;-66
2021/06/29 07:56:18;;;;;;;15.52;11.15;;;;;;;26.74;65.09;95215.97;5105625;28;20059;-66
2021/06/29 07:58:46;;;;;;;16.02;10.60;;;;;;;26.81;67.65;95221.56;5105931;28;20035;-66
2021/06/29 08:01:14;;;;;;;14.00;10.20;;;;;;;26.93;64.52;95212.81;5106121;28;20032;-66
2021/06/29 08:03:42;;;;;;;16.90;11.32;;;;;;;27.12;67.15;95208.91;5106773;28;20043;-67
2021/06/29 08:06:10;;;;;;;18.20;11.98;;;;;;;27.37;65.97;95205.25;5105290;28;20063;-67
2021/06/29 08:08:37;;;;;;;19.88;12.25;;;;;;;27.45;64.41;95200.94;5107045;28;20051;-67
2021/06/29 08:11:05;;;;;;;17.95;11.10;;;;;;;27.63;65.21;95205.00;5107138;28;20054;-66
2021/06/29 08:13:33;;;;;;;13.20;10.45;;;;;;;27.79;61.92;95209.72;5106404;28;20058;-66
2021/06/29 08:16:01;;;;;;;14.73;11.00;;;;;;;28.02;62.40;95202.09;5105674;28;20043;-66
2021/06/29 08:18:28;;;;;;;21.58;11.98;;;;;;;28.09;64.38;95196.16;5106431;28;20059;-67
2021/06/29 08:20:56;;;;;;;16.13;11.23;;;;;;;28.10;60.22;95192.38;5104565;28;20047;-67
2021/06/29 08:23:26;;;;;;;16.27;11.50;;;;;;;28.17;63.90;95195.28;5105155;28;20119;-67
2021/06/29 08:25:54;;;;;;;16.20;10.88;;;;;;;28.16;62.08;95201.75;5106084;28;20042;-67
2021/06/29 08:28:21;;;;;;;18.52;11.27;;;;;;;28.20;60.20;95198.06;5106273;28;20031;-67
2021/06/29 08:30:50;;;;;;;15.68;11.52;;;;;;;28.39;59.66;95202.84;5104514;28;20509;-68
2021/06/29 08:33:21;;;;;;;14.13;11.25;;;;;;;28.50;62.71;95194.38;5104708;28;20039;-67
2021/06/29 08:35:50;;;;;;;18.48;11.32;;;;;;;28.66;62.04;95197.94;5106111;28;20479;-67
2021/06/29 08:38:19;;;;;;;15.82;11.23;;;;;;;28.88;57.78;95199.38;5105866;28;20047;-67
2021/06/29 08:40:47;;;;;;;20.63;11.90;;;;;;;28.93;57.51;95195.66;5104950;28;20045;-66
2021/06/29 08:43:15;;;;;;;17.92;10.23;;;;;;;29.00;56.13;95190.50;5104754;28;20046;-67
2021/06/29 08:45:43;;;;;;;12.70;10.40;;;;;;;29.13;55.78;95191.22;5105823;28;20047;-67
2021/06/29 08:48:11;;;;;;;15.60;11.25;;;;;;;29.09;57.99;95199.19;5106356;28;20043;-67
2021/06/29 08:50:39;;;;;;;15.77;10.95;;;;;;;29.27;55.87;95188.19;5105526;28;20035;-67
2021/06/29 08:53:09;;;;;;;23.45;11.55;;;;;;;29.50;58.08;95186.50;5105678;28;20067;-67
2021/06/29 08:55:56;;;;;;;16.38;11.43;;;;;;;29.59;56.79;95181.00;5105222;28;20047;-67
2021/06/29 08:58:24;;;;;;;17.88;12.30;;;;;;;29.69;56.58;95161.72;5105118;28;20053;-67
2021/06/29 09:00:53;;;;;;;15.05;10.75;;;;;;;29.78;56.73;95169.59;5104365;28;20046;-67
2021/06/29 09:03:20;;;;;;;14.68;10.00;;;;;;;29.86;56.04;95176.72;5104150;28;20500;-66
2021/06/29 09:05:52;;;;;;;15.90;10.93;;;;;;;29.98;53.81;95164.31;5105528;28;20390;-67
2021/06/29 09:08:21;;;;;;;15.38;10.52;;;;;;;29.74;52.91;95166.81;5103734;28;20035;-67
2021/06/29 09:11:09;;;;;;;19.85;10.85;;;;;;;30.01;56.11;95161.72;5105465;28;20035;-67
2021/06/29 09:13:37;;;;;;;16.77;11.00;;;;;;;30.44;52.92;95167.31;5104668;28;20421;-67
2021/06/29 09:16:05;;;;;;;13.90;10.98;;;;;;;30.45;51.08;95163.50;5105014;28;20046;-67
2021/06/29 09:18:35;;;;;;;13.75;9.73;;;;;;;30.45;51.64;95164.28;5104933;28;20569;-67
2021/06/29 09:21:05;;;;;;;19.40;10.30;;;;;;;30.55;53.06;95162.97;5102447;28;20046;-67
2021/06/29 09:23:50;;;;;;;13.07;9.43;;;;;;;30.74;50.98;95164.09;5103662;28;20063;-67
2021/06/29 09:26:20;;;;;;;18.40;8.68;;;;;;;30.42;52.09;95158.84;5104124;28;20043;-67
2021/06/29 09:28:55;;;;;;;11.55;8.07;;;;;;;30.71;50.25;95164.84;5086751;28;20046;-67
2021/06/29 09:31:25;;;;;;;11.00;8.48;;;;;;;30.58;48.60;95148.06;5103292;28;20034;-67
2021/06/29 09:34:00;;;;;;;9.50;8.07;;;;;;;30.82;48.34;95149.69;5104525;28;20104;-67
2021/06/29 09:36:32;;;;;;;12.63;9.23;;;;;;;31.13;48.55;95148.00;5103675;28;20123;-67
2021/06/29 09:39:06;;;;;;;14.25;8.13;;;;;;;31.41;49.39;95137.78;5103475;28;20046;-67
2021/06/29 09:41:35;;;;;;;;;;;;;;;31.35;50.65;95144.59;5105060;28;20519;-67
2021/06/29 09:44:08;;;;;;;12.15;8.10;;;;;;;31.24;45.07;95152.47;5104730;28;19927;-67
2021/06/29 09:46:37;;;;;;;10.15;7.15;;;;;;;31.36;48.10;95146.13;5104591;28;20032;-67
2021/06/29 09:49:13;;;;;;;8.45;6.15;;;;;;;31.69;39.47;95125.97;5104433;28;20039;-67
2021/06/29 09:51:50;;;;;;;11.48;6.55;;;;;;;31.83;40.80;95139.66;5103140;28;20035;-67
2021/06/29 09:54:18;;;;;;;13.52;7.03;;;;;;;32.16;36.91;95127.50;5103657;28;20051;-68
2021/06/29 09:56:47;;;;;;;12.07;6.43;;;;;;;32.67;37.70;95133.63;5104512;28;20126;-68
2021/06/29 09:59:24;;;;;;;10.30;6.68;;;;;;;33.02;38.24;95135.19;5103395;28;20516;-67
2021/06/29 10:02:30;;;;;;;7.95;6.43;;;;;;;33.27;37.00;95133.53;5103359;28;20507;-67
2021/06/29 10:05:20;;;;;;;11.20;6.85;;;;;;;33.25;36.50;95130.44;5084778;28;20056;-67
2021/06/29 10:07:47;;;;;;;9.68;6.60;;;;;;;33.08;34.43;95131.00;5106664;28;20046;-67
2021/06/29 10:10:17;;;;;;;10.57;6.70;;;;;;;33.25;35.32;95130.44;5108609;28;20390;-67
2021/06/29 10:12:45;;;;;;;8.77;6.38;;;;;;;33.51;35.27;95126.84;5108660;28;20543;-67
2021/06/29 10:15:12;;;;;;;9.48;6.15;;;;;;;33.60;35.69;95117.66;5108003;28;20097;-67
2021/06/29 10:17:39;;;;;;;8.55;6.15;;;;;;;33.44;33.80;95128.69;5108457;28;20044;-67
2021/06/29 10:20:25;;;;;;;7.93;6.60;;;;;;;33.89;35.29;95129.53;5107400;28;20058;-68
2021/06/29 10:22:53;;;;;;;11.95;6.55;;;;;;;33.95;35.00;95119.91;5106460;28;20043;-68
2021/06/29 10:25:20;;;;;;;10.82;6.18;;;;;;;34.26;34.35;95125.94;5107879;28;20043;-68
2021/06/29 10:27:47;;;;;;;9.68;6.72;;;;;;;34.73;32.66;95120.81;5108305;28;20039;-68
2021/06/29 10:30:14;;;;;;;12.15;6.10;;;;;;;34.88;31.82;95121.63;5107976;28;20035;-67
2021/06/29 10:32:41;;;;;;;13.55;6.18;;;;;;;34.83;33.22;95107.31;5107854;28;20031;-68
2021/06/29 10:35:09;;;;;;;11.48;6.15;;;;;;;35.45;31.45;95112.91;5107912;28;20479;-68
2021/06/29 10:37:37;;;;;;;10.00;6.20;;;;;;;35.91;29.06;95099.41;5089426;28;20126;-67
2021/06/29 10:40:05;;;;;;;10.82;6.53;;;;;;;36.05;28.69;95100.53;5107076;28;20589;-69
2021/06/29 10:42:33;;;;;;;10.13;5.55;;;;;;;35.82;30.68;95100.94;5107004;28;20042;-67
2021/06/29 10:45:14;;;;;;;14.32;6.22;;;;;;;36.06;29.64;95105.59;5107715;28;20509;-67
2021/06/29 10:47:41;;;;;;;11.70;6.72;;;;;;;35.98;28.55;95098.63;5106727;28;20398;-68
2021/06/29 10:50:15;;;;;;;8.05;6.60;;;;;;;35.69;31.79;95097.81;5107543;28;20048;-68
2021/06/29 10:52:44;;;;;;;8.43;6.00;;;;;;;35.29;31.94;95102.44;5088114;28;20042;-67
2021/06/29 10:55:27;;;;;;;9.70;6.07;;;;;;;36.18;30.83;95085.44;5107908;28;20470;-68
2021/06/29 10:57:59;;;;;;;7.72;5.90;;;;;;;36.61;32.08;95085.34;5106400;28;20105;-68
2021/06/29 11:00:33;;;;;;;9.20;6.35;;;;;;;36.65;28.91;95091.50;5107323;28;20039;-67
2021/06/29 11:03:08;;;;;;;14.02;6.13;;;;;;;36.94;28.14;95091.41;5106798;28;20044;-68
2021/06/29 11:05:37;;;;;;;12.27;6.40;;;;;;;37.21;28.61;95082.78;5107101;28;20115;-67
2021/06/29 11:08:07;;;;;;;10.32;6.70;;;;;;;37.39;29.26;95067.13;5107367;28;20126;-68
2021/06/29 11:10:36;;;;;;;15.25;6.30;;;;;;;37.21;29.19;95066.47;5107384;28;20049;-67
2021/06/29 11:13:06;;;;;;;9.82;6.50;;;;;;;37.49;30.67;95071.72;5107374;28;20065;-67
2021/06/29 11:15:45;;;;;;;12.05;6.03;;;;;;;37.05;28.77;95070.41;5106346;28;20428;-67
2021/06/29 11:18:13;;;;;;;12.57;6.35;;;;;;;37.33;26.49;95073.38;5104998;28;20049;-68
2021/06/29 11:20:47;;;;;;;14.00;7.28;;;;;;;37.50;27.07;95062.38;5087612;28;20477;-67
2021/06/29 11:23:23;;;;;;;15.50;6.70;;;;;;;37.99;26.42;95064.31;5106053;28;20088;-67
2021/06/29 11:25:56;;;;;;;16.48;7.00;;;;;;;37.96;27.07;95059.69;5105930;28;20048;-67
2021/06/29 11:28:50;;;;;;;9.52;5.53;;;;;;;38.22;25.67;95061.78;5105880;28;20043;-67
2021/06/29 11:31:30;;;;;;;12.75;6.20;;;;;;;37.92;26.06;95058.94;5104982;28;20043;-67
2021/06/29 11:34:05;;;;;;;8.48;5.63;;;;;;;38.25;25.45;95055.53;5105425;28;20105;-67
2021/06/29 11:36:36;;;;;;;11.77;5.72;;;;;;;38.45;25.52;95065.81;5106766;28;20066;-67